createdAt,value
2017-04-04T13:31:56.331Z,26.43
2017-04-04T13:32:57.767Z,26.76
2017-04-04T13:33:59.216Z,27.73
2017-04-04T13:35:00.660Z,27.79
2017-04-04T13:36:02.107Z,28.96
2017-04-04T13:37:03.542Z,29.52
2017-04-04T13:38:04.992Z,28.03
2017-04-04T13:39:06.479Z,27.43
2017-04-04T13:40:07.877Z,28.90
2017-04-04T13:41:09.330Z,30.34
2017-04-04T13:42:10.771Z,29.43
2017-04-04T13:43:12.225Z,30.09
2017-04-04T13:44:13.667Z,31.02
2017-04-04T13:45:15.108Z,29.57
2017-04-04T13:46:16.551Z,29.84
2017-04-04T13:47:17.995Z,30.07
2017-04-04T13:48:19.434Z,28.09
2017-04-04T13:49:20.884Z,28.31
2017-04-04T13:50:22.323Z,27.77
2017-04-04T13:51:23.772Z,25.20
2017-04-04T13:52:25.215Z,24.57
2017-04-04T13:53:26.659Z,24.04
2017-04-04T13:54:28.118Z,22.01
2017-04-04T13:55:29.562Z,22.87
2017-04-04T13:56:31.006Z,22.25
2017-04-04T13:57:32.459Z,19.55
2017-04-04T13:58:33.915Z,18.43
2017-04-04T13:59:35.363Z,18.54
2017-04-04T14:00:36.799Z,18.61
2017-04-04T14:01:38.247Z,17.41
2017-04-04T14:02:39.704Z,17.04
2017-04-04T14:03:41.151Z,16.92
2017-04-04T14:04:42.594Z,17.08
2017-04-04T14:05:44.045Z,16.95
2017-04-04T14:06:45.515Z,17.10
2017-04-04T14:07:47.787Z,16.77
2017-04-04T14:08:49.272Z,16.55
2017-04-04T14:09:50.680Z,16.53
2017-04-04T14:10:52.121Z,16.45
2017-04-04T14:11:53.576Z,16.58
2017-04-04T14:12:55.018Z,16.34
2017-04-04T14:13:56.467Z,16.41
2017-04-04T14:14:57.909Z,16.41
2017-04-04T14:15:59.355Z,16.16
2017-04-04T14:17:00.795Z,16.06
2017-04-04T14:18:02.237Z,16.31
2017-04-04T14:19:03.688Z,16.15
2017-04-04T14:20:05.119Z,16.01
2017-04-04T14:21:06.558Z,15.89
2017-04-04T14:22:07.998Z,15.82
2017-04-04T14:23:09.444Z,15.79
2017-04-04T14:24:10.882Z,15.85
2017-04-04T14:25:12.329Z,15.78
2017-04-04T14:26:13.760Z,15.74
2017-04-04T14:27:15.197Z,15.81
2017-04-04T14:28:16.642Z,15.61
2017-04-04T14:29:18.087Z,15.93
2017-04-04T14:30:19.529Z,15.78
2017-04-04T14:31:20.972Z,15.74
2017-04-04T14:32:22.408Z,15.60
2017-04-04T14:33:23.860Z,15.59
2017-04-04T14:34:25.412Z,15.66
2017-04-04T14:35:26.843Z,15.61
2017-04-04T14:36:28.309Z,15.66
2017-04-04T14:37:29.745Z,15.54
2017-04-04T14:38:31.120Z,15.61
2017-04-04T14:39:32.570Z,15.67
2017-04-04T14:40:34.008Z,15.67
2017-04-04T14:41:35.442Z,15.63
2017-04-04T14:42:36.874Z,15.64
2017-04-04T14:43:38.308Z,15.82
2017-04-04T14:44:39.753Z,15.68
2017-04-04T14:45:41.191Z,15.56
2017-04-04T14:46:42.626Z,15.70
2017-04-04T14:47:44.063Z,15.72
2017-04-04T14:48:45.499Z,15.82
2017-04-04T14:49:46.934Z,15.70
2017-04-04T14:50:48.380Z,15.70
2017-04-04T14:51:49.816Z,15.57
2017-04-04T14:52:51.267Z,15.52
2017-04-04T14:53:52.702Z,15.52
2017-04-04T14:54:54.148Z,15.57
2017-04-04T14:55:55.582Z,15.56
2017-04-04T14:56:57.018Z,15.64
2017-04-04T14:57:58.456Z,15.66
2017-04-04T14:58:59.906Z,15.64
2017-04-04T15:00:01.345Z,15.61
2017-04-04T15:01:02.774Z,15.52
2017-04-04T15:02:04.214Z,15.52
2017-04-04T15:03:05.659Z,15.51
2017-04-04T15:04:07.087Z,15.52
2017-04-04T15:05:08.631Z,15.57
2017-04-04T15:06:10.060Z,15.51
2017-04-04T15:07:11.508Z,15.52
2017-04-04T15:08:12.940Z,15.54
2017-04-04T15:09:14.370Z,15.52
2017-04-04T15:10:15.817Z,15.57
2017-04-04T15:11:17.255Z,15.64
2017-04-04T15:12:18.706Z,15.57
2017-04-04T15:13:20.134Z,15.52
2017-04-04T15:14:21.577Z,15.51
2017-04-04T15:15:23.020Z,15.52
2017-04-04T15:16:24.450Z,15.36
2017-04-04T15:17:25.887Z,15.24
2017-04-04T15:18:27.323Z,15.28
2017-04-04T15:19:28.750Z,15.42
2017-04-04T15:20:30.196Z,15.49
2017-04-04T15:21:31.632Z,15.48
2017-04-04T15:22:33.062Z,15.49
2017-04-04T15:23:34.498Z,15.51
2017-04-04T15:24:35.928Z,15.43
2017-04-04T15:25:37.372Z,15.36
2017-04-04T15:26:38.806Z,15.52
2017-04-04T15:27:40.244Z,15.54
2017-04-04T15:28:41.672Z,15.49
2017-04-04T15:29:43.113Z,15.60
2017-04-04T15:30:44.552Z,15.79
2017-04-04T15:31:45.985Z,15.93
2017-04-04T15:32:47.441Z,15.78
2017-04-04T15:33:48.878Z,15.79
2017-04-04T15:34:50.313Z,15.48
2017-04-04T15:35:51.753Z,15.49
2017-04-04T15:36:53.199Z,15.51
2017-04-04T15:37:54.633Z,15.43
2017-04-04T15:38:56.066Z,15.41
2017-04-04T15:39:57.494Z,15.27
2017-04-04T15:40:58.936Z,15.36
2017-04-04T15:42:00.380Z,15.45
2017-04-04T15:43:01.811Z,15.41
2017-04-04T15:44:03.247Z,15.27
2017-04-04T15:45:04.703Z,15.27
2017-04-04T15:46:06.133Z,15.33
2017-04-04T15:47:07.569Z,15.23
2017-04-04T15:48:09.006Z,15.36
2017-04-04T15:49:10.441Z,15.39
2017-04-04T15:50:11.877Z,15.21
2017-04-04T15:51:13.314Z,15.20
2017-04-04T15:52:14.769Z,15.23
2017-04-04T15:53:16.208Z,15.23
2017-04-04T15:54:17.644Z,15.28
2017-04-04T15:55:19.083Z,15.17
2017-04-04T15:56:20.525Z,15.12
2017-04-04T15:57:22.828Z,15.13
2017-04-04T15:58:24.258Z,15.15
2017-04-04T15:59:25.706Z,15.03
2017-04-04T16:00:27.149Z,15.03
2017-04-04T16:01:28.586Z,15.13
2017-04-04T16:02:30.037Z,15.24
2017-04-04T16:03:31.485Z,15.26
2017-04-04T16:04:32.923Z,15.23
2017-04-04T16:05:34.349Z,15.21
2017-04-04T16:06:35.784Z,15.21
2017-04-04T16:07:37.223Z,15.28
2017-04-04T16:08:38.659Z,15.27
2017-04-04T16:09:40.094Z,15.30
2017-04-04T16:10:41.531Z,15.27
2017-04-04T16:11:42.971Z,15.21
2017-04-04T16:12:44.408Z,15.20
2017-04-04T16:13:45.858Z,15.13
2017-04-04T16:14:47.297Z,15.12
2017-04-04T16:15:48.726Z,15.23
2017-04-04T16:16:50.166Z,15.24
2017-04-04T16:17:51.606Z,15.26
2017-04-04T16:18:53.035Z,15.03
2017-04-04T16:19:54.469Z,15.12
2017-04-04T16:20:55.908Z,15.15
2017-04-04T16:21:57.349Z,15.12
2017-04-04T16:22:58.784Z,15.06
2017-04-04T16:24:00.213Z,15.12
2017-04-04T16:25:01.645Z,15.02
2017-04-04T16:26:03.083Z,15.02
2017-04-04T16:27:04.524Z,15.06
2017-04-04T16:28:05.964Z,15.01
2017-04-04T16:29:07.394Z,15.08
2017-04-04T16:30:08.836Z,15.06
2017-04-04T16:31:10.277Z,15.05
2017-04-04T16:32:11.711Z,15.05
2017-04-04T16:33:13.151Z,15.02
2017-04-04T16:34:14.590Z,14.84
2017-04-04T16:35:16.016Z,14.94
2017-04-04T16:36:17.469Z,14.83
2017-04-04T16:37:18.913Z,14.84
2017-04-04T16:38:20.345Z,14.74
2017-04-04T16:39:21.774Z,14.81
2017-04-04T16:40:23.219Z,14.78
2017-04-04T16:41:24.653Z,14.84
2017-04-04T16:42:26.098Z,14.90
2017-04-04T16:43:27.530Z,14.90
2017-04-04T16:44:28.973Z,14.94
2017-04-04T16:45:30.400Z,14.91
2017-04-04T16:46:31.844Z,14.84
2017-04-04T16:47:33.289Z,14.88
2017-04-04T16:48:34.720Z,14.99
2017-04-04T16:49:36.171Z,14.90
2017-04-04T16:50:37.601Z,14.81
2017-04-04T16:51:39.033Z,14.98
2017-04-04T16:52:40.469Z,14.93
2017-04-04T16:53:41.959Z,15.01
2017-04-04T16:54:43.394Z,14.83
2017-04-04T16:55:44.829Z,14.78
2017-04-04T16:56:46.257Z,14.83
2017-04-04T16:57:47.808Z,14.80
2017-04-04T16:58:49.250Z,14.78
2017-04-04T16:59:50.688Z,14.67
2017-04-04T17:00:52.126Z,14.74
2017-04-04T17:01:53.571Z,14.57
2017-04-04T17:02:55.010Z,14.69
2017-04-04T17:03:56.455Z,14.65
2017-04-04T17:04:57.892Z,14.54
2017-04-04T17:05:59.344Z,14.67
2017-04-04T17:07:00.776Z,14.52
2017-04-04T17:08:02.219Z,14.29
2017-04-04T17:09:03.734Z,14.32
2017-04-04T17:10:05.168Z,14.53
2017-04-04T17:11:06.597Z,14.43
2017-04-04T17:12:08.029Z,14.53
2017-04-04T17:13:09.464Z,14.42
2017-04-04T17:14:10.914Z,14.53
2017-04-04T17:15:12.343Z,14.46
2017-04-04T17:16:13.845Z,14.53
2017-04-04T17:17:15.274Z,14.56
2017-04-04T17:18:16.712Z,14.31
2017-04-04T17:19:18.194Z,14.38
2017-04-04T17:20:19.625Z,14.21
2017-04-04T17:21:21.059Z,14.24
2017-04-04T17:22:22.484Z,14.32
2017-04-04T17:23:23.935Z,14.34
2017-04-04T17:24:25.386Z,14.24
2017-04-04T17:25:26.831Z,14.35
2017-04-04T17:26:28.272Z,14.31
2017-04-04T17:27:29.710Z,14.28
2017-04-04T17:28:31.147Z,14.21
2017-04-04T17:29:32.575Z,14.12
2017-04-04T17:30:34.011Z,14.13
2017-04-04T17:31:35.447Z,14.09
2017-04-04T17:32:36.880Z,14.07
2017-04-04T17:33:38.322Z,14.13
2017-04-04T17:34:39.765Z,14.02
2017-04-04T17:35:41.203Z,14.04
2017-04-04T17:36:42.631Z,13.96
2017-04-04T17:37:44.171Z,14.06
2017-04-04T17:38:45.611Z,14.02
2017-04-04T17:39:47.048Z,14.13
2017-04-04T17:40:48.501Z,14.17
2017-04-04T17:41:49.930Z,14.07
2017-04-04T17:42:51.363Z,13.95
2017-04-04T17:43:52.807Z,13.94
2017-04-04T17:44:54.235Z,13.91
2017-04-04T17:45:55.682Z,13.91
2017-04-04T17:46:57.131Z,13.89
2017-04-04T17:47:58.564Z,13.99
2017-04-04T17:49:00.035Z,13.98
2017-04-04T17:50:01.471Z,13.83
2017-04-04T17:51:02.913Z,13.87
2017-04-04T17:52:04.350Z,13.94
2017-04-04T17:53:05.789Z,13.96
2017-04-04T17:54:07.227Z,13.91
2017-04-04T17:55:08.677Z,13.88
2017-04-04T17:56:10.108Z,13.87
2017-04-04T17:57:11.543Z,13.87
2017-04-04T17:58:12.977Z,13.76
2017-04-04T17:59:14.416Z,13.79
2017-04-04T18:00:15.920Z,13.70
2017-04-04T18:01:17.358Z,13.73
2017-04-04T18:02:18.789Z,13.55
2017-04-04T18:03:20.213Z,13.49
2017-04-04T18:04:21.645Z,13.47
2017-04-04T18:05:23.077Z,13.38
2017-04-04T18:06:24.508Z,13.41
2017-04-04T18:07:25.944Z,13.11
2017-04-04T18:08:27.411Z,13.25
2017-04-04T18:09:28.838Z,13.20
2017-04-04T18:10:30.273Z,13.12
2017-04-04T18:11:31.701Z,13.07
2017-04-04T18:12:33.140Z,12.89
2017-04-04T18:13:34.570Z,12.88
2017-04-04T18:14:36.084Z,12.78
2017-04-04T18:15:37.528Z,12.82
2017-04-04T18:16:38.962Z,12.93
2017-04-04T18:17:40.395Z,13.03
2017-04-04T18:18:41.913Z,12.82
2017-04-04T18:19:44.916Z,12.78
2017-04-04T18:20:46.349Z,12.71
2017-04-04T18:21:47.776Z,12.69
2017-04-04T18:22:49.214Z,12.23
2017-04-04T18:23:50.646Z,12.24
2017-04-04T18:24:52.071Z,12.09
2017-04-04T18:25:53.507Z,12.04
2017-04-04T18:26:54.937Z,12.04
2017-04-04T18:27:56.377Z,11.82
2017-04-04T18:28:57.803Z,11.86
2017-04-04T18:29:59.228Z,11.86
2017-04-04T18:31:00.672Z,11.68
2017-04-04T18:32:02.114Z,11.78
2017-04-04T18:33:03.544Z,11.59
2017-04-04T18:34:05.004Z,11.54
2017-04-04T18:35:06.410Z,11.39
2017-04-04T18:36:07.838Z,11.32
2017-04-04T18:37:09.268Z,11.32
2017-04-04T18:38:10.702Z,11.38
2017-04-04T18:39:12.141Z,11.32
2017-04-04T18:40:13.573Z,11.29
2017-04-04T18:41:15.006Z,11.27
2017-04-04T18:42:16.428Z,11.19
2017-04-04T18:43:17.862Z,11.10
2017-04-04T18:44:19.298Z,11.13
2017-04-04T18:45:20.729Z,11.14
2017-04-04T18:46:22.159Z,11.03
2017-04-04T18:47:23.603Z,11.01
2017-04-04T18:48:25.031Z,11.10
2017-04-04T18:49:26.463Z,10.95
2017-04-04T18:50:27.890Z,10.91
2017-04-04T18:51:29.313Z,10.66
2017-04-04T18:52:30.740Z,10.73
2017-04-04T18:53:32.178Z,10.92
2017-04-04T18:54:33.620Z,10.80
2017-04-04T18:55:35.038Z,10.92
2017-04-04T18:56:36.469Z,10.78
2017-04-04T18:57:37.888Z,10.70
2017-04-04T18:58:39.318Z,10.43
2017-04-04T18:59:40.762Z,10.25
2017-04-04T19:00:42.196Z,10.19
2017-04-04T19:01:43.631Z,9.93
2017-04-04T19:02:45.059Z,9.67
2017-04-04T19:03:46.480Z,9.48
2017-04-04T19:04:47.923Z,9.52
2017-04-04T19:05:49.356Z,9.53
2017-04-04T19:06:50.785Z,9.50
2017-04-04T19:07:52.212Z,9.61
2017-04-04T19:08:53.649Z,9.52
2017-04-04T19:09:55.076Z,9.66
2017-04-04T19:10:57.815Z,9.71
2017-04-04T19:11:59.251Z,9.85
2017-04-04T19:13:05.131Z,9.76
2017-04-04T19:14:06.561Z,9.91
2017-04-04T19:15:10.659Z,9.76
2017-04-04T19:16:12.076Z,9.75
2017-04-04T19:17:13.511Z,9.68
2017-04-04T19:18:14.935Z,9.67
2017-04-04T19:19:16.355Z,9.79
2017-04-04T19:20:17.865Z,9.76
2017-04-04T19:21:19.297Z,9.79
2017-04-04T19:22:20.716Z,9.93
2017-04-04T19:23:22.141Z,9.91
2017-04-04T19:24:23.574Z,9.96
2017-04-04T19:25:25.011Z,10.10
2017-04-04T19:26:26.437Z,10.18
2017-04-04T19:27:27.868Z,10.17
2017-04-04T19:28:29.300Z,10.28
2017-04-04T19:29:30.730Z,10.30
2017-04-04T19:30:32.157Z,10.32
2017-04-04T19:31:33.591Z,10.40
2017-04-04T19:32:35.033Z,10.40
2017-04-04T19:33:36.463Z,10.58
2017-04-04T19:34:37.899Z,10.47
2017-04-04T19:35:39.331Z,10.51
2017-04-04T19:36:40.762Z,10.33
2017-04-04T19:37:42.198Z,10.19
2017-04-04T19:38:43.650Z,10.26
2017-04-04T19:39:45.088Z,10.37
2017-04-04T19:40:46.519Z,10.19
2017-04-04T19:41:47.952Z,10.21
2017-04-04T19:42:49.381Z,10.32
2017-04-04T19:43:50.819Z,10.25
2017-04-04T19:44:52.256Z,10.26
2017-04-04T19:45:53.690Z,10.24
2017-04-04T19:46:55.124Z,10.24
2017-04-04T19:47:56.552Z,10.21
2017-04-04T19:48:57.982Z,10.18
2017-04-04T19:49:59.415Z,10.25
2017-04-04T19:51:00.851Z,10.19
2017-04-04T19:52:02.292Z,10.12
2017-04-04T19:53:03.721Z,9.99
2017-04-04T19:54:05.151Z,10.19
2017-04-04T19:55:06.580Z,9.94
2017-04-04T19:56:08.018Z,10.04
2017-04-04T19:57:09.446Z,10.03
2017-04-04T19:58:10.869Z,9.91
2017-04-04T19:59:12.304Z,9.79
2017-04-04T20:00:13.736Z,9.79
2017-04-04T20:01:15.160Z,9.53
2017-04-04T20:02:16.595Z,9.71
2017-04-04T20:03:18.020Z,9.81
2017-04-04T20:04:19.446Z,9.93
2017-04-04T20:05:20.895Z,10.03
2017-04-04T20:06:22.326Z,9.93
2017-04-04T20:07:23.755Z,9.83
2017-04-04T20:08:25.179Z,9.78
2017-04-04T20:09:27.102Z,9.83
2017-04-04T20:10:28.531Z,9.82
2017-04-04T20:11:29.955Z,9.78
2017-04-04T20:12:31.379Z,9.68
2017-04-04T20:13:32.811Z,9.64
2017-04-04T20:14:34.230Z,9.43
2017-04-04T20:15:35.660Z,9.43
2017-04-04T20:16:37.086Z,9.30
2017-04-04T20:17:38.514Z,9.25
2017-04-04T20:18:39.950Z,8.99
2017-04-04T20:19:41.374Z,9.12
2017-04-04T20:20:43.579Z,8.99
2017-04-04T20:21:45.947Z,9.05
2017-04-04T20:22:47.378Z,9.02
2017-04-04T20:23:49.721Z,8.90
2017-04-04T20:24:51.163Z,8.94
2017-04-04T20:25:53.124Z,8.88
2017-04-04T20:26:55.126Z,8.81
2017-04-04T20:27:57.295Z,8.53
2017-04-04T20:28:58.720Z,8.51
2017-04-04T20:30:00.688Z,8.32
2017-04-04T20:31:02.805Z,8.37
2017-04-04T20:32:04.234Z,8.45
2017-04-04T20:33:06.547Z,8.50
2017-04-04T20:34:08.824Z,8.29
2017-04-04T20:35:10.251Z,8.51
2017-04-04T20:36:12.600Z,8.71
2017-04-04T20:37:14.024Z,8.78
2017-04-04T20:38:15.967Z,8.83
2017-04-04T20:39:17.393Z,8.87
2017-04-04T20:40:18.827Z,8.88
2017-04-04T20:41:20.273Z,8.88
2017-04-04T20:42:22.269Z,8.73
2017-04-04T20:43:24.277Z,8.63
2017-04-04T20:44:26.271Z,8.73
2017-04-04T20:45:28.697Z,8.83
2017-04-04T20:46:30.126Z,8.71
2017-04-04T20:47:32.082Z,8.60
2017-04-04T20:48:34.487Z,8.53
2017-04-04T20:49:36.819Z,8.45
2017-04-04T20:50:39.169Z,8.37
2017-04-04T20:51:40.599Z,8.40
2017-04-04T20:52:42.784Z,8.48
2017-04-04T20:53:44.819Z,8.58
2017-04-04T20:54:46.827Z,8.60
2017-04-04T20:55:48.823Z,8.73
2017-04-04T20:56:50.777Z,8.79
2017-04-04T20:57:53.079Z,8.73
2017-04-04T20:58:55.323Z,8.53
2017-04-04T20:59:56.770Z,8.30
2017-04-04T21:00:58.915Z,8.32
2017-04-04T21:02:01.832Z,8.10
2017-04-04T21:03:03.270Z,8.18
2017-04-04T21:04:05.342Z,8.29
2017-04-04T21:05:07.422Z,8.26
2017-04-04T21:06:09.597Z,8.02
2017-04-04T21:07:11.029Z,7.94
2017-04-04T21:08:13.087Z,7.77
2017-04-04T21:09:15.282Z,7.66
2017-04-04T21:10:17.421Z,7.44
2017-04-04T21:11:19.429Z,7.75
2017-04-04T21:12:21.657Z,7.72
2017-04-04T21:13:23.080Z,7.77
2017-04-04T21:14:25.420Z,7.87
2017-04-04T21:15:26.853Z,7.74
2017-04-04T21:16:28.921Z,7.79
2017-04-04T21:17:31.114Z,7.90
2017-04-04T21:18:32.572Z,7.71
2017-04-04T21:19:34.866Z,7.78
2017-04-04T21:20:36.323Z,7.90
2017-04-04T21:21:37.756Z,7.84
2017-04-04T21:22:39.212Z,7.89
2017-04-04T21:23:41.654Z,7.89
2017-04-04T21:24:43.085Z,8.02
2017-04-04T21:25:45.291Z,8.04
2017-04-04T21:26:47.622Z,7.97
2017-04-04T21:27:49.054Z,8.15
2017-04-04T21:28:50.489Z,8.21
2017-04-04T21:29:52.597Z,7.99
2017-04-04T21:30:54.731Z,7.90
2017-04-04T21:31:56.818Z,7.92
2017-04-04T21:32:58.919Z,7.71
2017-04-04T21:34:00.938Z,7.69
2017-04-04T21:35:04.461Z,7.55
2017-04-04T21:36:07.272Z,7.62
2017-04-04T21:37:09.318Z,7.89
2017-04-04T21:38:11.315Z,7.78
2017-04-04T21:39:13.177Z,7.69
2017-04-04T21:40:15.585Z,7.90
2017-04-04T21:41:17.006Z,7.85
2017-04-04T21:42:19.023Z,7.85
2017-04-04T21:43:21.130Z,7.78
2017-04-04T21:44:22.558Z,7.84
2017-04-04T21:45:24.904Z,7.71
2017-04-04T21:46:27.127Z,7.62
2017-04-04T21:47:28.561Z,7.72
2017-04-04T21:48:31.442Z,7.82
2017-04-04T21:49:33.121Z,7.79
2017-04-04T21:50:34.562Z,7.75
2017-04-04T21:51:36.584Z,7.74
2017-04-04T21:52:38.675Z,7.59
2017-04-04T21:53:40.103Z,7.62
2017-04-04T21:54:42.088Z,7.59
2017-04-04T21:55:44.132Z,7.44
2017-04-04T21:56:46.133Z,7.52
2017-04-04T21:57:48.328Z,7.58
2017-04-04T21:58:50.387Z,7.24
2017-04-04T21:59:51.840Z,7.08
2017-04-04T22:00:54.029Z,7.05
2017-04-04T22:01:56.337Z,7.22
2017-04-04T22:02:57.777Z,7.08
2017-04-04T22:03:59.995Z,7.23
2017-04-04T22:05:02.339Z,7.08
2017-04-04T22:06:03.785Z,7.19
2017-04-04T22:07:05.938Z,7.34
2017-04-04T22:08:08.068Z,7.23
2017-04-04T22:09:10.056Z,7.19
2017-04-04T22:10:12.468Z,7.08
2017-04-04T22:11:14.437Z,7.09
2017-04-04T22:12:15.865Z,7.16
2017-04-04T22:13:17.875Z,7.19
2017-04-04T22:14:19.886Z,7.22
2017-04-04T22:15:21.965Z,7.29
2017-04-04T22:16:24.080Z,7.31
2017-04-04T22:17:26.176Z,7.20
2017-04-04T22:18:28.192Z,6.91
2017-04-04T22:19:30.186Z,7.09
2017-04-04T22:20:32.964Z,7.17
2017-04-04T22:21:34.401Z,7.34
2017-04-04T22:22:36.790Z,7.17
2017-04-04T22:23:38.232Z,7.19
2017-04-04T22:24:40.221Z,7.20
2017-04-04T22:25:42.248Z,7.19
2017-04-04T22:26:44.289Z,6.95
2017-04-04T22:27:46.361Z,6.95
2017-04-04T22:28:48.539Z,7.01
2017-04-04T22:29:49.971Z,7.02
2017-04-04T22:30:51.944Z,7.04
2017-04-04T22:31:54.057Z,7.08
2017-04-04T22:32:55.502Z,7.08
2017-04-04T22:33:57.840Z,6.94
2017-04-04T22:34:59.276Z,6.69
2017-04-04T22:36:01.243Z,6.58
2017-04-04T22:37:03.342Z,6.80
2017-04-04T22:38:05.347Z,7.08
2017-04-04T22:39:07.373Z,7.04
2017-04-04T22:40:08.801Z,6.83
2017-04-04T22:41:11.213Z,6.89
2017-04-04T22:42:12.647Z,6.97
2017-04-04T22:43:14.666Z,6.72
2017-04-04T22:44:16.839Z,6.69
2017-04-04T22:45:18.280Z,6.84
2017-04-04T22:46:20.548Z,6.89
2017-04-04T22:47:21.974Z,6.48
2017-04-04T22:48:23.400Z,6.56
2017-04-04T22:49:25.745Z,6.61
2017-04-04T22:50:28.094Z,6.66
2017-04-04T22:51:29.518Z,6.63
2017-04-04T22:52:31.543Z,6.83
2017-04-04T22:53:32.987Z,6.66
2017-04-04T22:54:35.251Z,6.56
2017-04-04T22:55:36.689Z,6.59
2017-04-04T22:56:39.048Z,6.71
2017-04-04T22:57:42.932Z,6.76
2017-04-04T22:58:45.341Z,6.59
2017-04-04T23:00:49.038Z,6.63
2017-04-04T23:01:51.164Z,6.54
2017-04-04T23:02:53.328Z,6.54
2017-04-04T23:03:55.452Z,6.68
2017-04-04T23:04:57.453Z,6.36
2017-04-04T23:05:59.407Z,6.35
2017-04-04T23:07:01.849Z,6.47
2017-04-04T23:08:03.243Z,6.43
2017-04-04T23:09:05.261Z,6.36
2017-04-04T23:10:07.498Z,6.38
2017-04-04T23:11:09.685Z,6.56
2017-04-04T23:12:12.026Z,6.63
2017-04-04T23:13:14.099Z,6.35
2017-04-04T23:14:16.113Z,6.21
2017-04-04T23:15:18.057Z,6.11
2017-04-04T23:16:20.068Z,6.22
2017-04-04T23:17:22.414Z,6.09
2017-04-04T23:18:24.601Z,6.00
2017-04-04T23:19:26.845Z,6.11
2017-04-04T23:20:29.034Z,6.33
2017-04-04T23:21:30.456Z,6.19
2017-04-04T23:22:32.852Z,6.04
2017-04-04T23:23:34.318Z,5.85
2017-04-04T23:24:36.286Z,5.82
2017-04-04T23:25:38.303Z,5.68
2017-04-04T23:26:40.269Z,5.66
2017-04-04T23:27:42.574Z,5.89
2017-04-04T23:28:44.840Z,6.03
2017-04-04T23:29:47.008Z,6.26
2017-04-04T23:30:49.227Z,6.38
2017-04-04T23:31:50.656Z,6.40
2017-04-04T23:32:52.791Z,6.29
2017-04-04T23:33:54.774Z,6.32
2017-04-04T23:34:56.715Z,6.44
2017-04-04T23:35:58.708Z,6.40
2017-04-04T23:37:00.640Z,6.29
2017-04-04T23:38:02.936Z,6.36
2017-04-04T23:39:05.156Z,6.46
2017-04-04T23:40:07.523Z,6.47
2017-04-04T23:41:09.724Z,6.36
2017-04-04T23:42:11.154Z,6.32
2017-04-04T23:43:13.166Z,6.36
2017-04-04T23:44:15.221Z,6.32
2017-04-04T23:45:17.628Z,6.04
2017-04-04T23:46:19.965Z,6.11
2017-04-04T23:47:21.396Z,5.93
2017-04-04T23:48:23.738Z,5.91
2017-04-04T23:49:26.022Z,5.92
2017-04-04T23:50:28.394Z,6.04
2017-04-04T23:51:29.825Z,6.10
2017-04-04T23:52:31.940Z,6.07
2017-04-04T23:53:34.003Z,5.89
2017-04-04T23:54:36.019Z,5.66
2017-04-04T23:55:37.979Z,6.00
2017-04-04T23:56:40.433Z,6.29
2017-04-04T23:57:42.683Z,6.32
2017-04-04T23:58:44.113Z,6.41
2017-04-04T23:59:45.538Z,6.35
